Honea Path, South Carolina
Current Conditions -  °F | °C
As of 2:56 PM on Sunday 25 Jan 2015 (Local Time) from KAND Reporting Station
Clear Clear  
Wind Chill: 57°   Ceiling: Unl
Heat Index: 57°   Visibility: 10mi
Dew Point: 29°   Wind: 12mph
Humidity: 34%   Direction: 240°WSW
Pressure: 29.79"   Gusts: NA
Location:  34.45°N, 82.39°W
Report Text: KAND 251956Z AUTO 24010KT 10SM CLR 14/M02 A2979 RMK AO2 SLP088 T01391017
Loading
Personal Weather Stations






























Interactive Weather Map New forecast layout! Learn more

10-Day Weather Forecast

Advertisements
Track Severe Weather on mobile